createdAt,value
2024-02-29T00:00:50.365Z,17.00
2024-02-29T00:01:47.688Z,16.45
2024-02-29T00:02:45.268Z,15.68
2024-02-29T00:03:42.306Z,16.25
2024-02-29T00:04:39.515Z,16.75
2024-02-29T00:05:38.268Z,15.90
2024-02-29T00:06:36.163Z,16.92
2024-02-29T00:07:33.392Z,16.37
2024-02-29T00:08:30.453Z,16.20
2024-02-29T00:09:27.639Z,15.82
2024-02-29T00:10:24.799Z,16.42
2024-02-29T00:11:22.650Z,15.88
2024-02-29T00:12:20.206Z,16.52
2024-02-29T00:13:17.217Z,17.00
2024-02-29T00:14:14.477Z,16.33
2024-02-29T00:15:12.620Z,16.42
2024-02-29T00:16:09.663Z,16.50
2024-02-29T00:17:07.417Z,16.75
2024-02-29T00:18:04.741Z,15.82
2024-02-29T00:19:01.957Z,15.63
2024-02-29T00:19:59.316Z,15.38
2024-02-29T00:20:56.539Z,15.93
2024-02-29T00:21:53.837Z,16.02
2024-02-29T00:22:51.051Z,14.48
2024-02-29T00:23:48.452Z,16.95
2024-02-29T00:24:45.497Z,15.05
2024-02-29T00:25:42.642Z,14.35
2024-02-29T00:26:39.770Z,15.38
2024-02-29T00:27:36.915Z,15.52
2024-02-29T00:28:33.980Z,15.95
2024-02-29T00:29:31.216Z,16.23
2024-02-29T00:30:28.431Z,16.35
2024-02-29T00:31:26.134Z,15.98
2024-02-29T00:32:23.356Z,16.98
2024-02-29T00:33:20.488Z,17.20
2024-02-29T00:34:17.682Z,16.75
2024-02-29T00:35:14.984Z,15.85
2024-02-29T00:36:12.142Z,16.00
2024-02-29T00:37:09.291Z,16.00
2024-02-29T00:38:06.568Z,15.95
2024-02-29T00:39:11.492Z,16.35
2024-02-29T00:40:12.190Z,16.95
2024-02-29T00:41:09.498Z,15.88
2024-02-29T00:42:06.785Z,16.42
2024-02-29T00:43:04.310Z,16.33
2024-02-29T00:44:01.594Z,16.17
2024-02-29T00:44:58.866Z,16.92
2024-02-29T00:45:56.284Z,16.60
2024-02-29T00:46:53.444Z,15.13
2024-02-29T00:47:52.252Z,16.55
2024-02-29T00:48:49.599Z,16.25
2024-02-29T00:49:46.795Z,16.27
2024-02-29T00:50:43.910Z,15.63
2024-02-29T00:51:41.000Z,16.75
2024-02-29T00:52:39.401Z,16.37
2024-02-29T00:53:36.556Z,16.92
2024-02-29T00:54:33.819Z,16.77
2024-02-29T00:55:30.955Z,16.48
2024-02-29T00:56:28.044Z,15.77
2024-02-29T00:57:25.508Z,15.45
2024-02-29T00:58:23.406Z,16.65
2024-02-29T00:59:20.487Z,17.30
2024-02-29T01:00:17.842Z,16.05
2024-02-29T01:01:15.088Z,17.23
2024-02-29T01:02:12.340Z,15.52
2024-02-29T01:03:10.226Z,16.98
2024-02-29T01:04:07.401Z,14.65
2024-02-29T01:05:05.807Z,14.18
2024-02-29T01:06:03.043Z,14.35
2024-02-29T01:07:00.147Z,14.18
2024-02-29T01:07:57.230Z,14.52
2024-02-29T01:08:54.345Z,15.05
2024-02-29T01:09:51.540Z,13.90
2024-02-29T01:10:49.044Z,14.18
2024-02-29T01:11:46.318Z,14.13
2024-02-29T01:12:44.123Z,14.00
2024-02-29T01:13:41.388Z,13.50
2024-02-29T01:14:38.540Z,13.95
2024-02-29T01:15:35.810Z,13.15
2024-02-29T01:16:32.884Z,14.00
2024-02-29T01:17:30.162Z,13.55
2024-02-29T01:18:27.548Z,13.88
2024-02-29T01:19:24.745Z,13.75
2024-02-29T01:20:21.891Z,14.63
2024-02-29T01:21:19.132Z,14.63
2024-02-29T01:22:18.027Z,15.35
2024-02-29T01:23:15.616Z,13.00
2024-02-29T01:24:12.705Z,13.90
2024-02-29T01:25:10.344Z,15.43
2024-02-29T01:26:08.176Z,14.35
2024-02-29T01:27:05.418Z,14.73
2024-02-29T01:28:02.513Z,15.20
2024-02-29T01:28:59.756Z,14.23
2024-02-29T01:29:56.871Z,14.45
2024-02-29T01:30:54.045Z,14.48
2024-02-29T01:31:51.188Z,13.23
2024-02-29T01:32:48.721Z,13.38
2024-02-29T01:33:45.905Z,13.98
2024-02-29T01:34:43.115Z,14.38
2024-02-29T01:35:40.277Z,15.57
2024-02-29T01:36:37.454Z,14.75
2024-02-29T01:37:34.600Z,15.00
2024-02-29T01:38:31.663Z,13.95
2024-02-29T01:39:28.860Z,13.68
2024-02-29T01:40:26.532Z,14.38
2024-02-29T01:41:23.863Z,14.07
2024-02-29T01:42:21.024Z,16.52
2024-02-29T01:43:18.267Z,14.52
2024-02-29T01:44:15.463Z,13.82
2024-02-29T01:45:13.646Z,13.40
2024-02-29T01:46:15.212Z,14.18
2024-02-29T01:47:14.249Z,13.25
2024-02-29T01:48:12.213Z,13.70
2024-02-29T01:49:09.555Z,13.02
2024-02-29T01:50:09.455Z,14.00
2024-02-29T01:51:08.212Z,13.85
2024-02-29T01:52:05.557Z,14.38
2024-02-29T01:53:02.842Z,13.95
2024-02-29T01:53:59.988Z,13.77
2024-02-29T01:54:57.157Z,14.02
2024-02-29T01:55:54.406Z,14.00
2024-02-29T01:56:52.185Z,13.65
2024-02-29T01:57:49.662Z,13.45
2024-02-29T01:58:47.003Z,14.15
2024-02-29T01:59:44.773Z,13.98
2024-02-29T02:00:42.061Z,13.85
2024-02-29T02:01:40.214Z,15.02
2024-02-29T02:02:40.055Z,14.82
2024-02-29T02:03:38.708Z,14.95
2024-02-29T02:04:36.049Z,13.13
2024-02-29T02:05:33.152Z,14.60
2024-02-29T02:06:30.283Z,15.35
2024-02-29T02:07:27.576Z,14.38
2024-02-29T02:08:27.646Z,14.45
2024-02-29T02:09:25.367Z,14.95
2024-02-29T02:10:22.975Z,13.98
2024-02-29T02:11:20.235Z,14.82
2024-02-29T02:12:17.497Z,13.85
2024-02-29T02:13:14.754Z,14.30
2024-02-29T02:14:11.896Z,14.50
2024-02-29T02:15:09.668Z,14.38
2024-02-29T02:16:07.623Z,14.15
2024-02-29T02:17:04.986Z,14.10
2024-02-29T02:18:02.071Z,15.38
2024-02-29T02:18:59.298Z,14.70
2024-02-29T02:19:57.351Z,14.07
2024-02-29T02:20:57.300Z,14.85
2024-02-29T02:21:54.523Z,14.35
2024-02-29T02:22:51.843Z,14.55
2024-02-29T02:23:48.867Z,14.68
2024-02-29T02:24:46.065Z,14.93
2024-02-29T02:25:43.269Z,14.48
2024-02-29T02:26:40.290Z,14.57
2024-02-29T02:27:40.409Z,14.55
2024-02-29T02:28:37.540Z,15.07
2024-02-29T02:29:34.773Z,15.25
2024-02-29T02:30:32.275Z,14.65
2024-02-29T02:31:30.660Z,14.68
2024-02-29T02:32:27.923Z,14.27
2024-02-29T02:33:25.202Z,14.75
2024-02-29T02:34:22.309Z,14.30
2024-02-29T02:35:19.493Z,14.00
2024-02-29T02:36:16.562Z,14.55
2024-02-29T02:37:13.686Z,14.70
2024-02-29T02:38:10.952Z,15.60
2024-02-29T02:39:09.425Z,15.27
2024-02-29T02:40:07.449Z,13.62
2024-02-29T02:41:04.861Z,14.38
2024-02-29T02:42:02.722Z,15.48
2024-02-29T02:43:00.006Z,14.82
2024-02-29T02:43:57.118Z,14.38
2024-02-29T02:44:54.330Z,14.70
2024-02-29T02:45:51.478Z,15.73
2024-02-29T02:46:49.445Z,15.52
2024-02-29T02:47:46.739Z,15.63
2024-02-29T02:48:44.334Z,16.33
2024-02-29T02:49:44.189Z,15.38
2024-02-29T02:50:41.347Z,15.67
2024-02-29T02:51:38.606Z,15.38
2024-02-29T02:52:35.826Z,15.75
2024-02-29T02:53:33.126Z,15.15
2024-02-29T02:54:30.403Z,15.82
2024-02-29T02:55:27.660Z,15.23
2024-02-29T02:56:24.848Z,14.93
2024-02-29T02:57:21.925Z,15.82
2024-02-29T02:58:18.940Z,16.45
2024-02-29T02:59:16.085Z,16.30
2024-02-29T03:00:13.970Z,15.85
2024-02-29T03:01:11.173Z,15.27
2024-02-29T03:02:08.470Z,15.40
2024-02-29T03:03:06.003Z,15.43
2024-02-29T03:04:03.110Z,14.85
2024-02-29T03:05:03.086Z,14.70
2024-02-29T03:06:00.207Z,15.25
2024-02-29T03:06:57.304Z,15.45
2024-02-29T03:07:54.303Z,15.40
2024-02-29T03:08:51.360Z,14.43
2024-02-29T03:09:48.625Z,14.90
2024-02-29T03:10:45.719Z,14.73
2024-02-29T03:11:42.875Z,14.38
2024-02-29T03:12:40.149Z,14.65
2024-02-29T03:13:37.777Z,14.30
2024-02-29T03:14:34.898Z,15.43
2024-02-29T03:15:32.083Z,15.27
2024-02-29T03:16:29.361Z,15.52
2024-02-29T03:17:26.414Z,15.18
2024-02-29T03:18:23.490Z,15.13
2024-02-29T03:19:20.591Z,14.52
2024-02-29T03:20:17.845Z,15.38
2024-02-29T03:21:16.122Z,15.00
2024-02-29T03:22:13.436Z,15.25
2024-02-29T03:23:10.576Z,14.10
2024-02-29T03:24:07.798Z,14.27
2024-02-29T03:25:05.166Z,14.52
2024-02-29T03:26:02.413Z,15.85
2024-02-29T03:26:59.547Z,16.40
2024-02-29T03:27:56.957Z,14.87
2024-02-29T03:28:53.983Z,15.90
2024-02-29T03:29:51.375Z,15.45
2024-02-29T03:30:48.427Z,15.20
2024-02-29T03:31:46.837Z,15.77
2024-02-29T03:32:44.740Z,16.25
2024-02-29T03:33:42.319Z,16.62
2024-02-29T03:34:39.499Z,16.00
2024-02-29T03:35:36.622Z,17.20
2024-02-29T03:36:33.900Z,15.98
2024-02-29T03:37:30.992Z,16.00
2024-02-29T03:38:28.234Z,16.15
2024-02-29T03:39:25.326Z,16.08
2024-02-29T03:40:22.403Z,14.73
2024-02-29T03:41:19.723Z,15.15
2024-02-29T03:42:18.762Z,16.10
2024-02-29T03:43:16.171Z,16.50
2024-02-29T03:44:13.416Z,14.95
2024-02-29T03:45:10.734Z,15.60
2024-02-29T03:46:07.971Z,15.55
2024-02-29T03:47:06.122Z,16.27
2024-02-29T03:48:03.282Z,15.80
2024-02-29T03:49:00.704Z,16.08
2024-02-29T03:49:58.964Z,15.82
2024-02-29T03:50:56.067Z,16.08
2024-02-29T03:51:53.156Z,15.57
2024-02-29T03:52:50.238Z,16.48
2024-02-29T03:53:47.375Z,15.57
2024-02-29T03:54:46.537Z,15.68
2024-02-29T03:55:45.033Z,16.17
2024-02-29T03:56:42.149Z,17.20
2024-02-29T03:57:39.227Z,15.90
2024-02-29T03:58:36.414Z,16.33
2024-02-29T03:59:34.056Z,16.52
2024-02-29T04:00:31.353Z,16.45
2024-02-29T04:01:28.756Z,15.32
2024-02-29T04:02:25.904Z,15.93
2024-02-29T04:03:23.158Z,15.30
2024-02-29T04:04:21.522Z,15.18
2024-02-29T04:05:18.678Z,16.23
2024-02-29T04:06:15.779Z,15.77
2024-02-29T04:07:12.925Z,15.82
2024-02-29T04:08:12.851Z,17.08
2024-02-29T04:09:10.850Z,14.95
2024-02-29T04:10:08.385Z,16.58
2024-02-29T04:11:05.867Z,16.60
2024-02-29T04:12:03.036Z,15.82
2024-02-29T04:13:00.221Z,16.27
2024-02-29T04:13:57.691Z,15.02
2024-02-29T04:14:54.927Z,16.27
2024-02-29T04:15:52.014Z,15.40
2024-02-29T04:16:49.109Z,15.93
2024-02-29T04:17:46.219Z,15.95
2024-02-29T04:18:43.378Z,15.85
2024-02-29T04:19:40.772Z,15.60
2024-02-29T04:20:37.881Z,17.35
2024-02-29T04:21:35.521Z,16.52
2024-02-29T04:22:32.519Z,17.00
2024-02-29T04:23:29.572Z,15.98
2024-02-29T04:24:26.634Z,15.18
2024-02-29T04:25:26.645Z,15.60
2024-02-29T04:26:25.543Z,15.57
2024-02-29T04:27:22.608Z,15.88
2024-02-29T04:28:19.817Z,16.05
2024-02-29T04:29:16.989Z,14.73
2024-02-29T04:30:15.406Z,14.45
2024-02-29T04:31:12.674Z,15.77
2024-02-29T04:32:09.961Z,15.82
2024-02-29T04:33:08.170Z,16.23
2024-02-29T04:34:05.353Z,15.55
2024-02-29T04:35:02.420Z,17.23
2024-02-29T04:35:59.575Z,16.75
2024-02-29T04:36:56.681Z,16.77
2024-02-29T04:37:53.844Z,15.88
2024-02-29T04:38:51.418Z,15.10
2024-02-29T04:39:48.592Z,16.00
2024-02-29T04:40:45.709Z,17.17
2024-02-29T04:41:43.028Z,15.27
2024-02-29T04:42:41.256Z,15.77
2024-02-29T04:43:38.698Z,16.58
2024-02-29T04:44:35.649Z,16.00
2024-02-29T04:45:32.810Z,17.23
2024-02-29T04:46:30.521Z,16.20
2024-02-29T04:47:27.643Z,15.40
2024-02-29T04:48:24.696Z,15.65
2024-02-29T04:49:21.836Z,15.93
2024-02-29T04:50:19.783Z,17.05
2024-02-29T04:51:16.928Z,16.23
2024-02-29T04:52:14.070Z,15.48
2024-02-29T04:53:11.343Z,15.60
2024-02-29T04:54:08.916Z,15.75
2024-02-29T04:55:06.481Z,16.10
2024-02-29T04:56:05.543Z,16.58
2024-02-29T04:57:02.979Z,17.12
2024-02-29T04:58:00.153Z,16.27
2024-02-29T04:58:57.273Z,17.80
2024-02-29T04:59:54.566Z,15.75
2024-02-29T05:00:51.970Z,16.08
2024-02-29T05:01:49.233Z,16.27
2024-02-29T05:02:46.506Z,16.58
2024-02-29T05:03:43.592Z,16.30
2024-02-29T05:04:40.966Z,16.60
2024-02-29T05:05:38.126Z,17.20
2024-02-29T05:06:35.310Z,15.43
2024-02-29T05:07:33.043Z,15.13
2024-02-29T05:08:30.202Z,14.52
2024-02-29T05:09:28.136Z,16.00
2024-02-29T05:10:25.260Z,14.90
2024-02-29T05:11:22.442Z,14.40
2024-02-29T05:12:21.263Z,15.05
2024-02-29T05:13:18.354Z,15.80
2024-02-29T05:14:15.429Z,14.87
2024-02-29T05:15:13.014Z,14.68
2024-02-29T05:16:10.226Z,15.32
2024-02-29T05:17:07.420Z,15.75
2024-02-29T05:18:05.124Z,16.08
2024-02-29T05:19:02.552Z,15.75
2024-02-29T05:20:00.508Z,14.60
2024-02-29T05:20:57.645Z,15.48
2024-02-29T05:21:56.647Z,15.40
2024-02-29T05:22:55.178Z,15.32
2024-02-29T05:23:52.334Z,15.98
2024-02-29T05:24:49.494Z,15.48
2024-02-29T05:25:46.459Z,15.52
2024-02-29T05:26:43.636Z,16.27
2024-02-29T05:27:40.863Z,16.15
2024-02-29T05:28:38.250Z,14.87
2024-02-29T05:29:35.453Z,14.57
2024-02-29T05:30:32.573Z,15.43
2024-02-29T05:31:29.664Z,17.42
2024-02-29T05:32:26.812Z,15.65
2024-02-29T05:33:24.131Z,15.85
2024-02-29T05:34:25.363Z,16.15
2024-02-29T05:35:24.415Z,15.00
2024-02-29T05:36:21.681Z,15.38
2024-02-29T05:37:19.127Z,16.00
2024-02-29T05:38:16.474Z,17.45
2024-02-29T05:39:13.670Z,15.63
2024-02-29T05:40:12.074Z,15.77
2024-02-29T05:41:09.414Z,15.60
2024-02-29T05:42:06.873Z,15.60
2024-02-29T05:43:05.091Z,15.95
2024-02-29T05:44:02.246Z,15.93
2024-02-29T05:44:59.396Z,15.65
2024-02-29T05:45:56.635Z,15.80
2024-02-29T05:46:53.658Z,16.05
2024-02-29T05:47:51.968Z,16.30
2024-02-29T05:48:49.227Z,15.93
2024-02-29T05:49:46.269Z,16.80
2024-02-29T05:50:43.364Z,16.35
2024-02-29T05:51:40.414Z,16.33
2024-02-29T05:52:37.918Z,16.85
2024-02-29T05:53:35.720Z,15.82
2024-02-29T05:54:32.808Z,16.98
2024-02-29T05:55:29.925Z,15.98
2024-02-29T05:56:27.017Z,15.90
2024-02-29T05:57:25.959Z,16.75
2024-02-29T05:58:23.047Z,15.98
2024-02-29T05:59:21.956Z,15.45
2024-02-29T06:00:19.413Z,16.48
2024-02-29T06:01:16.670Z,16.33
2024-02-29T06:02:14.100Z,16.50
2024-02-29T06:03:11.518Z,16.73
2024-02-29T06:04:08.699Z,15.02
2024-02-29T06:05:07.444Z,15.95
2024-02-29T06:06:06.130Z,15.63
2024-02-29T06:07:03.289Z,15.10
2024-02-29T06:08:00.355Z,14.48
2024-02-29T06:08:57.369Z,15.57
2024-02-29T06:09:54.383Z,14.18
2024-02-29T06:10:51.502Z,15.75
2024-02-29T06:11:49.395Z,15.80
2024-02-29T06:12:47.127Z,15.10
2024-02-29T06:13:44.741Z,15.90
2024-02-29T06:14:41.996Z,16.50
2024-02-29T06:15:39.315Z,16.25
2024-02-29T06:16:36.611Z,16.52
2024-02-29T06:17:33.821Z,15.48
2024-02-29T06:18:31.007Z,15.15
2024-02-29T06:19:28.557Z,16.48
2024-02-29T06:20:25.535Z,15.80
2024-02-29T06:21:22.670Z,15.55
2024-02-29T06:22:24.396Z,15.75
2024-02-29T06:23:21.521Z,15.65
2024-02-29T06:24:20.364Z,15.73
2024-02-29T06:25:19.187Z,16.30
2024-02-29T06:26:16.586Z,16.15
2024-02-29T06:27:13.773Z,16.20
2024-02-29T06:28:10.978Z,16.50
2024-02-29T06:29:08.064Z,16.40
2024-02-29T06:30:07.723Z,16.92
2024-02-29T06:31:05.062Z,17.12
2024-02-29T06:32:03.241Z,16.60
2024-02-29T06:33:00.879Z,17.17
2024-02-29T06:33:59.586Z,16.95
2024-02-29T06:34:56.730Z,16.85
2024-02-29T06:35:53.980Z,16.50
2024-02-29T06:36:51.314Z,16.62
2024-02-29T06:37:48.428Z,15.90
2024-02-29T06:38:45.675Z,16.25
2024-02-29T06:39:43.018Z,16.27
2024-02-29T06:40:40.057Z,16.52
2024-02-29T06:41:37.891Z,16.58
2024-02-29T06:42:35.133Z,16.77
2024-02-29T06:43:33.412Z,16.20
2024-02-29T06:44:30.710Z,16.80
2024-02-29T06:45:27.869Z,16.25
2024-02-29T06:46:24.934Z,16.20
2024-02-29T06:47:22.097Z,17.92
2024-02-29T06:48:20.199Z,16.90
2024-02-29T06:49:17.331Z,16.65
2024-02-29T06:50:14.625Z,15.40
2024-02-29T06:51:11.663Z,16.30
2024-02-29T06:52:08.814Z,14.63
2024-02-29T06:53:05.828Z,15.30
2024-02-29T06:54:04.109Z,15.68
2024-02-29T06:55:01.397Z,16.00
2024-02-29T06:55:58.875Z,15.25
2024-02-29T06:56:56.186Z,15.70
2024-02-29T06:57:53.322Z,16.00
2024-02-29T06:58:50.699Z,16.12
2024-02-29T06:59:49.924Z,15.75
2024-02-29T07:00:49.432Z,15.77
2024-02-29T07:01:46.673Z,17.12
2024-02-29T07:02:43.927Z,15.88
2024-02-29T07:03:41.428Z,16.08
2024-02-29T07:04:39.406Z,16.67
2024-02-29T07:05:38.366Z,16.40
2024-02-29T07:06:36.225Z,15.85
2024-02-29T07:07:33.429Z,15.65
2024-02-29T07:08:32.638Z,15.05
2024-02-29T07:09:29.723Z,16.00
2024-02-29T07:10:26.767Z,17.30
2024-02-29T07:11:24.409Z,15.13
2024-02-29T07:12:22.006Z,14.85
2024-02-29T07:13:19.272Z,15.23
2024-02-29T07:14:17.989Z,14.82
2024-02-29T07:15:15.632Z,14.50
2024-02-29T07:16:12.784Z,14.85
2024-02-29T07:17:09.996Z,15.73
2024-02-29T07:18:07.901Z,15.07
2024-02-29T07:19:05.545Z,15.90
2024-02-29T07:20:05.122Z,15.10
2024-02-29T07:21:02.258Z,14.98
2024-02-29T07:21:59.383Z,15.20
2024-02-29T07:22:57.998Z,15.48
2024-02-29T07:23:54.996Z,16.75
2024-02-29T07:24:52.057Z,15.07
2024-02-29T07:25:49.244Z,16.08
2024-02-29T07:26:46.606Z,15.98
2024-02-29T07:27:46.257Z,15.98
2024-02-29T07:28:43.476Z,15.82
2024-02-29T07:29:40.605Z,17.42
2024-02-29T07:30:37.984Z,17.60
2024-02-29T07:31:35.074Z,16.23
2024-02-29T07:32:32.145Z,15.80
2024-02-29T07:33:30.056Z,17.80
2024-02-29T07:34:27.166Z,17.45
2024-02-29T07:35:24.666Z,17.98
2024-02-29T07:36:21.836Z,18.87
2024-02-29T07:37:19.175Z,19.62
2024-02-29T07:38:16.416Z,20.90
2024-02-29T07:39:13.904Z,20.73
2024-02-29T07:40:11.165Z,22.33
2024-02-29T07:41:08.318Z,23.10
2024-02-29T07:42:05.591Z,24.67
2024-02-29T07:43:02.650Z,23.30
2024-02-29T07:43:59.774Z,24.55
2024-02-29T07:44:57.794Z,24.33
2024-02-29T07:45:55.007Z,24.40
2024-02-29T07:46:52.257Z,24.10
2024-02-29T07:47:49.320Z,22.85
2024-02-29T07:48:46.517Z,24.45
2024-02-29T07:49:43.907Z,23.95
2024-02-29T07:50:40.964Z,23.45
2024-02-29T07:51:38.125Z,22.83
2024-02-29T07:52:39.740Z,24.45
2024-02-29T07:53:37.018Z,23.12
2024-02-29T07:54:34.138Z,24.58
2024-02-29T07:55:31.496Z,23.73
2024-02-29T07:56:30.322Z,23.87
2024-02-29T07:57:31.106Z,24.58
2024-02-29T07:59:27.016Z,22.05
2024-02-29T08:00:24.439Z,23.40
2024-02-29T08:01:21.644Z,19.33
2024-02-29T08:02:21.195Z,24.33
2024-02-29T08:03:19.573Z,23.92
2024-02-29T08:04:16.790Z,23.12
2024-02-29T08:05:14.267Z,23.25
2024-02-29T08:06:11.300Z,23.20
2024-02-29T08:07:08.450Z,22.85
2024-02-29T08:08:06.015Z,22.98
2024-02-29T08:09:09.507Z,23.98
2024-02-29T08:10:08.343Z,22.73
2024-02-29T08:11:08.639Z,22.75
2024-02-29T08:12:07.091Z,24.10
2024-02-29T08:13:04.499Z,23.73
2024-02-29T08:14:02.273Z,23.55
2024-02-29T08:14:59.483Z,23.52
2024-02-29T08:15:56.705Z,23.90
2024-02-29T08:16:53.692Z,23.38
2024-02-29T08:17:50.963Z,24.12
2024-02-29T08:18:48.826Z,24.00
2024-02-29T08:19:47.068Z,22.70
2024-02-29T08:20:47.452Z,23.05
2024-02-29T08:21:44.720Z,22.27
2024-02-29T08:22:41.978Z,24.58
2024-02-29T08:23:39.040Z,24.52
2024-02-29T08:24:36.134Z,23.62
2024-02-29T08:25:33.516Z,23.80
2024-02-29T08:26:30.890Z,22.65
2024-02-29T08:27:28.624Z,24.17
2024-02-29T08:28:26.301Z,22.80
2024-02-29T08:29:23.389Z,23.90
2024-02-29T08:30:21.054Z,24.30
2024-02-29T08:31:18.989Z,22.62
2024-02-29T08:32:16.344Z,23.77
2024-02-29T08:33:13.627Z,24.77
2024-02-29T08:34:11.051Z,24.95
2024-02-29T08:35:09.029Z,24.60
2024-02-29T08:36:06.300Z,24.65
2024-02-29T08:37:03.715Z,25.10
2024-02-29T08:38:01.128Z,24.85
2024-02-29T08:39:00.127Z,25.85
2024-02-29T08:39:57.917Z,24.20
2024-02-29T08:43:05.975Z,22.67
2024-02-29T08:44:04.663Z,24.85
2024-02-29T08:45:01.937Z,24.10
2024-02-29T08:45:59.072Z,25.08
2024-02-29T08:46:56.132Z,23.73
2024-02-29T08:47:53.115Z,24.23
2024-02-29T08:48:50.300Z,26.25
2024-02-29T08:49:47.385Z,24.73
2024-02-29T08:50:44.523Z,24.63
2024-02-29T08:51:42.035Z,25.70
2024-02-29T08:52:40.637Z,21.77
2024-02-29T08:53:37.747Z,24.60
2024-02-29T08:54:36.085Z,23.05
2024-02-29T08:55:33.286Z,23.42
2024-02-29T08:56:30.410Z,23.85
2024-02-29T08:57:27.571Z,22.90
2024-02-29T08:58:25.047Z,22.85
2024-02-29T08:59:22.592Z,21.35
2024-02-29T09:00:20.337Z,22.87
2024-02-29T09:01:18.072Z,23.73
2024-02-29T09:02:15.330Z,24.33
2024-02-29T09:03:14.925Z,21.60
2024-02-29T09:04:12.076Z,23.40
2024-02-29T09:05:09.609Z,23.50
2024-02-29T09:06:06.869Z,22.80
2024-02-29T09:07:04.910Z,23.42
2024-02-29T09:08:02.575Z,25.02
2024-02-29T09:08:59.945Z,25.45
2024-02-29T09:09:57.123Z,24.92
2024-02-29T09:10:54.481Z,24.37
2024-02-29T09:11:52.415Z,25.48
2024-02-29T09:12:49.478Z,24.42
2024-02-29T09:13:47.282Z,24.20
2024-02-29T09:14:47.718Z,23.60
2024-02-29T09:15:45.634Z,23.70
2024-02-29T09:16:46.051Z,25.40
2024-02-29T09:17:43.811Z,24.42
2024-02-29T09:18:41.225Z,23.05
2024-02-29T09:19:38.495Z,24.12
2024-02-29T09:20:35.568Z,23.67
2024-02-29T09:21:32.843Z,24.08
2024-02-29T09:22:29.985Z,23.40
2024-02-29T09:23:27.755Z,24.12
2024-02-29T09:24:25.021Z,24.17
2024-02-29T09:25:22.237Z,22.90
2024-02-29T09:26:19.899Z,22.45
2024-02-29T09:27:17.185Z,23.95
2024-02-29T09:28:14.464Z,23.85
2024-02-29T09:29:11.825Z,23.83
2024-02-29T09:30:09.278Z,23.27
2024-02-29T09:31:06.599Z,25.00
2024-02-29T09:32:06.614Z,24.75
2024-02-29T09:33:04.014Z,25.25
2024-02-29T09:34:01.323Z,23.50
2024-02-29T09:34:58.492Z,23.52
2024-02-29T09:35:59.236Z,23.90
2024-02-29T09:36:56.645Z,23.95
2024-02-29T09:37:53.796Z,24.00
2024-02-29T09:38:50.987Z,23.85
2024-02-29T09:39:48.635Z,24.02
2024-02-29T09:40:49.669Z,26.62
2024-02-29T09:42:11.168Z,26.08
2024-02-29T09:43:11.957Z,25.02
2024-02-29T09:44:10.080Z,23.83
2024-02-29T09:45:08.630Z,24.40
2024-02-29T09:46:07.234Z,24.30
2024-02-29T09:47:06.327Z,24.73
2024-02-29T09:48:04.696Z,25.27
2024-02-29T09:49:01.955Z,24.37
2024-02-29T09:50:05.031Z,24.80
2024-02-29T09:51:04.034Z,24.65
2024-02-29T09:52:01.613Z,25.70
2024-02-29T09:53:00.196Z,24.12
2024-02-29T09:53:58.766Z,23.75
2024-02-29T09:54:56.984Z,24.33
2024-02-29T09:55:54.177Z,24.40
2024-02-29T09:56:52.009Z,24.58
2024-02-29T09:57:49.255Z,23.77
2024-02-29T09:58:46.557Z,23.83
2024-02-29T09:59:44.162Z,24.02
2024-02-29T10:00:41.298Z,23.33
2024-02-29T10:01:38.572Z,24.73
2024-02-29T10:02:36.586Z,24.27
2024-02-29T10:03:33.874Z,25.80
2024-02-29T10:04:31.053Z,24.65
2024-02-29T10:05:28.302Z,26.27
2024-02-29T10:06:25.935Z,27.13
2024-02-29T10:07:23.150Z,25.60
2024-02-29T10:08:20.416Z,25.80
2024-02-29T10:09:17.612Z,26.80
2024-02-29T10:10:16.338Z,24.50
2024-02-29T10:11:13.802Z,25.55
2024-02-29T10:12:16.875Z,25.80
2024-02-29T10:13:14.089Z,24.37
2024-02-29T10:14:28.336Z,25.95
2024-02-29T10:15:28.930Z,24.95
2024-02-29T10:16:28.574Z,25.23
2024-02-29T10:17:26.190Z,24.08
2024-02-29T10:18:23.345Z,25.42
2024-02-29T10:19:21.628Z,24.25
2024-02-29T10:20:21.713Z,23.30
2024-02-29T10:21:18.921Z,24.77
2024-02-29T10:22:22.205Z,22.55
2024-02-29T10:23:19.225Z,23.70
2024-02-29T10:24:16.500Z,24.95
2024-02-29T10:25:14.689Z,23.87
2024-02-29T10:26:11.982Z,24.40
2024-02-29T10:27:09.858Z,23.05
2024-02-29T10:28:07.320Z,24.33
2024-02-29T10:29:10.138Z,23.20
2024-02-29T10:30:11.648Z,24.35
2024-02-29T10:31:08.937Z,22.55
2024-02-29T10:32:06.186Z,25.20
2024-02-29T10:33:04.643Z,24.48
2024-02-29T10:34:01.794Z,23.85
2024-02-29T10:34:58.894Z,23.65
2024-02-29T10:35:56.396Z,23.60
2024-02-29T10:36:53.455Z,23.05
2024-02-29T10:37:55.211Z,24.83
2024-02-29T10:38:52.725Z,23.50
2024-02-29T10:39:49.892Z,22.67
2024-02-29T10:40:51.075Z,22.87
2024-02-29T10:41:51.782Z,22.75
2024-02-29T10:43:56.357Z,22.05
2024-02-29T10:44:54.367Z,22.17
2024-02-29T10:45:52.349Z,21.60
2024-02-29T10:46:51.454Z,22.65
2024-02-29T10:48:00.481Z,24.63
2024-02-29T10:49:36.767Z,22.05
2024-02-29T10:50:50.093Z,23.17
2024-02-29T10:52:06.126Z,23.87
2024-02-29T10:53:20.829Z,22.02
2024-02-29T10:54:21.938Z,23.83
2024-02-29T10:55:26.143Z,24.23
2024-02-29T10:56:24.915Z,23.02
2024-02-29T10:57:28.068Z,24.23
2024-02-29T10:58:29.711Z,23.45
2024-02-29T10:59:26.953Z,23.73
2024-02-29T11:00:24.314Z,24.35
2024-02-29T11:01:21.631Z,23.25
2024-02-29T11:02:19.722Z,22.92
2024-02-29T11:03:17.148Z,21.30
2024-02-29T11:04:17.595Z,22.75
2024-02-29T11:05:14.944Z,23.15
2024-02-29T11:06:14.329Z,21.75
2024-02-29T11:07:11.493Z,20.23
2024-02-29T11:08:09.681Z,22.17
2024-02-29T11:09:10.013Z,22.55
2024-02-29T11:10:08.510Z,22.05
2024-02-29T11:11:13.280Z,23.42
2024-02-29T11:12:17.473Z,22.75
2024-02-29T11:13:20.490Z,23.73
2024-02-29T11:14:20.719Z,24.55
2024-02-29T11:15:27.050Z,23.42
2024-02-29T11:16:24.493Z,22.42
2024-02-29T11:17:21.794Z,23.10
2024-02-29T11:18:26.040Z,24.23
2024-02-29T11:19:23.197Z,23.80
2024-02-29T11:20:21.836Z,22.98
2024-02-29T11:21:30.005Z,23.23
2024-02-29T11:22:35.061Z,22.00
2024-02-29T11:23:39.617Z,22.95
2024-02-29T11:24:37.519Z,22.13
2024-02-29T11:25:34.733Z,23.25
2024-02-29T11:26:36.843Z,23.35
2024-02-29T11:27:35.470Z,23.87
2024-02-29T11:28:43.043Z,23.48
2024-02-29T11:29:43.532Z,23.73
2024-02-29T11:30:42.465Z,22.40
2024-02-29T11:31:45.442Z,19.40
2024-02-29T11:32:42.621Z,18.60
2024-02-29T11:33:40.004Z,18.27
2024-02-29T11:34:37.146Z,18.40
2024-02-29T11:35:34.663Z,20.08
2024-02-29T11:36:33.707Z,19.98
2024-02-29T11:37:34.330Z,18.77
2024-02-29T11:38:40.275Z,18.90
2024-02-29T11:39:38.005Z,17.98
2024-02-29T11:40:37.000Z,17.85
2024-02-29T11:41:34.203Z,18.20
2024-02-29T11:42:31.511Z,18.80
2024-02-29T11:43:28.768Z,18.90
2024-02-29T11:44:25.937Z,16.77
2024-02-29T11:45:23.813Z,19.37
2024-02-29T11:46:21.316Z,18.25
2024-02-29T11:47:18.549Z,18.25
2024-02-29T11:48:16.608Z,17.83
2024-02-29T11:49:15.538Z,17.23
2024-02-29T11:50:14.452Z,17.58
2024-02-29T11:51:11.773Z,17.35
2024-02-29T11:52:09.187Z,17.02
2024-02-29T11:53:06.246Z,17.40
2024-02-29T11:54:03.337Z,17.23
2024-02-29T11:55:00.591Z,17.02
2024-02-29T11:56:03.098Z,16.25
2024-02-29T11:57:08.227Z,17.45
2024-02-29T11:58:05.505Z,16.37
2024-02-29T11:59:08.325Z,16.50
2024-02-29T12:00:08.176Z,16.30
2024-02-29T12:01:05.655Z,16.58
2024-02-29T12:02:07.264Z,17.40
2024-02-29T12:03:05.762Z,17.00
2024-02-29T12:04:03.184Z,17.37
2024-02-29T12:05:00.326Z,15.95
2024-02-29T12:05:59.127Z,15.70
2024-02-29T12:06:57.417Z,16.90
2024-02-29T12:07:54.411Z,17.02
2024-02-29T12:08:51.518Z,16.58
2024-02-29T12:09:48.951Z,15.30
2024-02-29T12:10:49.126Z,17.48
2024-02-29T12:11:46.805Z,15.95
2024-02-29T12:12:43.990Z,16.15
2024-02-29T12:13:41.338Z,16.15
2024-02-29T12:14:40.098Z,15.70
2024-02-29T12:15:37.528Z,17.85
2024-02-29T12:16:37.343Z,16.05
2024-02-29T12:17:34.614Z,16.45
2024-02-29T12:18:34.261Z,16.23
2024-02-29T12:19:31.570Z,16.73
2024-02-29T12:20:29.108Z,16.48
2024-02-29T12:21:28.072Z,17.30
2024-02-29T12:22:25.285Z,16.05
2024-02-29T12:23:22.378Z,16.75
2024-02-29T12:24:20.295Z,15.20
2024-02-29T12:25:18.739Z,16.08
2024-02-29T12:26:17.563Z,16.33
2024-02-29T12:27:14.668Z,15.43
2024-02-29T12:28:13.234Z,16.10
2024-02-29T12:29:10.437Z,16.75
2024-02-29T12:30:09.118Z,14.15
2024-02-29T12:31:09.792Z,14.10
2024-02-29T12:32:06.960Z,14.70